Latest Weather Observations for Pallamana

IDS60801

Issued at 1:02 pm CDT Monday 30 March 2015 (issued every 30 minutes, with the page automatically refreshed every 10 minutes)

About weather observations | Map of weather stations | Latest weather observations for SA | Other Formats
Station Details ID: 024584 Name: PALLAMANA AERODROME Lat: -35.06 Lon: 139.23 Height: 45.0 m
Data from the previous 72 hours. | See also: Recent months at Pallamana
Date/Time
CDT
Temp
°C
App
Temp
°C
Dew
Point
Rel
Hum
%
Delta-T
°C
Wind Press
QNH
hPa
Press
MSL
hPa
Rain
since 9 am
mm
Dir
 
Spd
km/h
Gust
km/h
Spd
kts
Gust
kts
30/01:00pm 23.6 22.3 10.1 42 7.4 NW 7 13 4 7 1025.0 1024.9 0.0
30/12:30pm 22.7 21.0 10.0 44 6.9 ESE 9 13 5 7 1025.4 1025.3 0.0
30/12:00pm 21.6 19.7 10.6 49 6.0 S 11 15 6 8 1025.7 1025.6 0.0
30/11:30am 21.3 20.3 11.1 52 5.6 SE 7 11 4 6 1025.9 1025.8 0.0
30/11:00am 20.5 19.1 10.8 53 5.3 ESE 9 13 5 7 1026.2 1026.1 0.0
30/10:30am 20.1 19.2 10.5 54 5.2 SE 6 11 3 6 1026.4 1026.3 0.0
30/10:00am 18.5 17.9 12.2 66 3.5 SE 7 11 4 6 1026.4 1026.3 0.0
30/09:30am 17.3 16.8 12.2 72 2.8 SSE 6 7 3 4 1026.2 1026.1 0.0
30/09:00am 14.9 15.6 12.1 83 1.5 CALM 0 0 0 0 1025.9 1025.8 0.0
30/08:30am 12.9 13.5 11.8 93 0.6 CALM 0 0 0 0 1025.8 1025.7 0.0
30/08:00am 10.9 10.9 9.9 93 0.5 CALM 0 0 0 0 1025.5 1025.4 0.0
30/07:30am 10.7 10.6 9.5 92 0.6 CALM 0 0 0 0 1025.1 1025.0 0.0
30/07:00am 10.7 10.7 9.7 93 0.5 CALM 0 0 0 0 1024.5 1024.4 0.0
30/06:30am 9.9 9.7 8.9 93 0.5 CALM 0 0 0 0 1024.0 1023.9 0.0
30/06:00am 10.5 9.0 9.3 92 0.6 SW 7 7 4 4 1023.8 1023.7 0.0
30/05:30am 11.3 11.3 9.9 91 0.7 CALM 0 0 0 0 1023.7 1023.6 0.0
30/05:00am 11.6 10.8 9.8 89 0.9 W 4 9 2 5 1023.6 1023.5 0.0
30/04:30am 12.0 11.8 10.4 90 0.8 W 2 9 1 5 1023.5 1023.4 0.0
30/04:00am 11.2 11.1 9.4 89 0.9 CALM 0 0 0 0 1023.5 1023.4 0.0
30/03:30am 14.2 12.2 11.4 83 1.5 W 13 17 7 9 1023.5 1023.4 0.0
30/03:00am 14.4 12.8 11.4 82 1.6 W 11 13 6 7 1023.8 1023.7 0.0
30/02:30am 14.3 12.3 11.5 83 1.5 WSW 13 15 7 8 1023.9 1023.8 0.0
30/02:00am 14.6 12.5 11.2 80 1.8 W 13 15 7 8 1023.9 1023.8 0.0
30/01:30am 14.7 12.9 10.9 78 2.0 W 11 13 6 7 1024.0 1023.9 0.0
30/01:00am 15.2 13.1 11.1 76 2.2 W 13 17 7 9 1024.1 1024.0 0.0
30/12:30am 15.6 13.5 11.3 75 2.3 WSW 13 15 7 8 1024.2 1024.1 0.0
30/12:00am 15.2 12.7 11.1 76 2.2 WSW 15 17 8 9 1024.1 1024.0 0.0
 
Date/Time
CDT
Temp
°C
App
Temp
°C
Dew
Point
Rel
Hum
%
Delta-T
°C
Wind Press
QNH
hPa
Press
MSL
hPa
Rain
since 9 am
mm
Dir
 
Spd
km/h
Gust
km/h
Spd
kts
Gust
kts
29/11:30pm 15.3 13.5 11.0 75 2.3 WSW 11 13 6 7 1024.1 1024.0 0.0
29/11:00pm 15.9 14.8 10.8 71 2.7 SW 7 11 4 6 1024.2 1024.1 0.0
29/10:30pm 16.3 15.8 10.9 70 2.9 SW 4 11 2 6 1024.2 1024.1 0.0
29/10:00pm 17.4 16.1 11.3 67 3.3 SW 9 11 5 6 1023.9 1023.8 0.0
29/09:30pm 18.5 16.4 11.3 63 3.9 SW 13 13 7 7 1023.6 1023.5 0.0
29/09:00pm 19.3 18.0 11.2 59 4.4 S 9 11 5 6 1023.4 1023.3 0.0
29/08:30pm 20.0 18.2 10.8 55 5.0 SSW 11 17 6 9 1023.1 1023.0 0.0
29/08:00pm 20.5 18.0 11.0 54 5.2 SW 15 19 8 10 1022.7 1022.6 0.0
29/07:30pm 21.1 19.2 10.6 51 5.7 S 11 15 6 8 1022.3 1022.2 0.0
29/07:00pm 21.7 18.4 9.6 46 6.5 S 17 24 9 13 1022.1 1022.0 0.0
29/06:30pm 22.7 19.3 9.0 41 7.3 SSW 17 24 9 13 1021.9 1021.8 0.0
29/06:00pm 23.2 19.3 8.5 39 7.8 SSW 19 24 10 13 1021.5 1021.4 0.0
29/05:30pm 23.7 19.5 8.2 37 8.2 SSW 20 32 11 17 1021.2 1021.1 0.0
29/05:00pm 24.7 20.7 8.2 35 8.8 SSW 19 26 10 14 1021.0 1020.9 0.0
29/04:30pm 26.6 22.5 7.9 30 10.0 W 19 28 10 15 1020.7 1020.6 0.0
29/04:00pm 25.2 21.3 7.3 32 9.4 WNW 17 26 9 14 1020.8 1020.7 0.0
29/03:30pm 25.5 22.9 7.8 32 9.4 SW 11 20 6 11 1020.9 1020.8 0.0
29/03:00pm 25.0 21.3 6.4 30 9.6 WSW 15 20 8 11 1021.1 1021.0 0.0
29/02:30pm 25.6 23.3 7.4 31 9.6 NNW 9 17 5 9 1021.3 1021.2 0.0
29/02:00pm 25.0 21.3 6.1 29 9.7 WNW 15 22 8 12 1021.6 1021.5 0.0
29/01:30pm 24.7 21.9 7.1 32 9.2 NNW 11 20 6 11 1022.0 1021.9 0.0
29/01:00pm 23.6 20.6 6.1 32 8.9 E 11 17 6 9 1022.5 1022.4 0.0
29/12:30pm 23.2 20.5 5.8 32 8.8 ESE 9 13 5 7 1022.8 1022.7 0.0
29/12:00pm 22.8 20.1 3.5 28 9.3 NE 7 13 4 7 1022.9 1022.8 0.0
29/11:30am 22.8 20.4 4.5 30 9.0 N 6 11 3 6 1023.1 1023.0 0.0
29/11:00am 21.5 19.2 7.3 40 7.3 E 9 13 5 7 1023.4 1023.3 0.0
29/10:30am 18.3 17.2 10.7 61 4.1 N 7 9 4 5 1023.9 1023.8 0.0
29/10:00am 15.0 14.2 11.2 78 2.0 N 6 7 3 4 1024.0 1023.9 0.0
29/09:30am 14.0 14.6 11.8 86 1.2 CALM 0 0 0 0 1023.9 1023.8 0.0
29/09:00am 13.5 13.6 11.4 87 1.1 N 2 6 1 3 1023.6 1023.5 0.0
29/08:30am 13.1 12.8 11.6 91 0.8 NNE 4 7 2 4 1023.4 1023.3 0.0
29/08:00am 12.0 12.3 11.0 94 0.5 CALM 0 0 0 0 1023.0 1022.9 0.0
29/07:30am 9.2 8.8 8.2 93 0.5 CALM 0 0 0 0 1022.7 1022.6 0.0
29/07:00am 10.6 10.5 9.6 93 0.5 CALM 0 2 0 1 1022.3 1022.2 0.0
29/06:30am 10.4 10.2 9.2 92 0.6 CALM 0 0 0 0 1021.9 1021.8 0.0
29/06:00am 11.2 11.3 10.2 94 0.5 CALM 0 0 0 0 1021.7 1021.6 0.0
29/05:30am 11.4 11.6 10.4 94 0.5 CALM 0 0 0 0 1021.4 1021.3 0.0
29/05:00am 11.5 11.6 10.3 92 0.6 CALM 0 0 0 0 1021.4 1021.3 0.0
29/04:30am 11.5 11.6 10.1 91 0.7 CALM 0 0 0 0 1021.1 1021.0 0.0
29/04:00am 11.7 11.8 10.1 90 0.8 CALM 0 0 0 0 1021.1 1021.0 0.0
29/03:30am 11.2 11.1 9.6 90 0.8 CALM 0 0 0 0 1021.3 1021.2 0.0
29/03:00am 11.6 10.9 10.0 90 0.8 W 4 7 2 4 1021.6 1021.5 0.0
29/02:30am 11.4 10.9 9.4 87 1.0 ESE 2 7 1 4 1021.8 1021.7 0.0
29/02:00am 12.7 10.8 10.6 87 1.1 W 11 13 6 7 1022.2 1022.1 0.0
29/01:30am 12.9 11.0 10.6 86 1.2 W 11 13 6 7 1022.3 1022.2 0.0
29/01:00am 12.9 10.6 10.6 86 1.2 W 13 15 7 8 1022.3 1022.2 0.0
29/12:30am 12.7 11.2 10.6 87 1.1 W 9 13 5 7 1022.2 1022.1 0.0
29/12:00am 11.3 10.0 9.3 87 1.0 W 6 9 3 5 1022.3 1022.2 0.0
 
Date/Time
CDT
Temp
°C
App
Temp
°C
Dew
Point
Rel
Hum
%
Delta-T
°C
Wind Press
QNH
hPa
Press
MSL
hPa
Rain
since 9 am
mm
Dir
 
Spd
km/h
Gust
km/h
Spd
kts
Gust
kts
28/11:30pm 12.2 11.9 10.0 86 1.1 SW 2 7 1 4 1022.5 1022.4 0.0
28/11:00pm 12.3 10.6 9.7 84 1.3 WSW 9 11 5 6 1022.7 1022.6 0.0
28/10:30pm 13.6 11.4 10.7 82 1.5 WSW 13 15 7 8 1022.9 1022.8 0.0
28/10:00pm 14.4 12.3 11.0 80 1.8 WSW 13 13 7 7 1022.9 1022.8 0.0
28/09:30pm 14.1 12.7 10.9 81 1.7 SW 9 11 5 6 1022.6 1022.5 0.0
28/09:00pm 15.3 14.5 11.0 75 2.3 S 6 9 3 5 1022.4 1022.3 0.0
28/08:30pm 16.4 13.9 11.0 70 2.9 SW 15 17 8 9 1022.3 1022.2 0.0
28/08:00pm 17.5 14.5 10.8 65 3.6 SW 17 20 9 11 1021.7 1021.6 0.0
28/07:30pm 18.9 17.0 9.2 53 5.1 SSW 9 13 5 7 1021.3 1021.2 0.0
28/07:00pm 20.2 17.5 9.0 48 5.9 SSW 13 17 7 9 1021.1 1021.0 0.0
28/06:30pm 21.1 17.3 9.0 46 6.4 SSW 19 24 10 13 1020.7 1020.6 0.0
28/06:00pm 21.9 17.6 9.2 44 6.8 SW 22 30 12 16 1020.4 1020.3 0.0
28/05:30pm 23.3 19.6 6.5 34 8.6 WSW 15 20 8 11 1020.6 1020.5 0.0
28/05:00pm 23.6 21.0 7.8 36 8.3 W 11 20 6 11 1020.7 1020.6 0.0
28/04:30pm 23.5 20.2 6.3 33 8.8 WSW 13 24 7 13 1020.8 1020.7 0.0
28/04:00pm 23.7 20.1 6.9 34 8.7 NNW 15 24 8 13 1021.1 1021.0 0.0
28/03:30pm 22.7 18.4 7.8 38 7.8 NNE 20 30 11 16 1021.3 1021.2 0.0
28/03:00pm 22.7 19.2 8.8 41 7.4 NNE 17 28 9 15 1021.9 1021.8 0.0
28/02:30pm 22.6 18.5 8.6 40 7.4 N 20 28 11 15 1022.3 1022.2 0.0
28/02:00pm 22.4 18.7 7.8 39 7.6 NNE 17 28 9 15 1022.7 1022.6 0.0
28/01:30pm 21.4 17.4 8.2 42 6.9 NNE 19 30 10 16 1023.4 1023.3 0.0
28/01:00pm 20.2 16.0 8.2 46 6.2 NNE 20 32 11 17 1024.0 1023.9 0.0
28/12:30pm 20.1 15.9 8.1 46 6.2 N 20 28 11 15 1024.6 1024.5 0.0
28/12:00pm 18.6 14.6 9.2 54 4.9 NNE 20 30 11 16 1025.0 1024.9 0.0
28/11:30am 17.6 13.1 8.6 55 4.6 NNE 22 32 12 17 1025.4 1025.3 0.0
28/11:00am 16.4 13.0 9.0 61 3.8 NNE 17 28 9 15 1026.1 1026.0 0.0
28/10:30am 15.2 12.8 10.2 72 2.6 NE 13 17 7 9 1026.6 1026.5 0.0
28/10:00am 13.7 12.3 10.8 83 1.5 NE 9 13 5 7 1026.7 1026.6 0.0
28/09:30am 12.6 11.4 11.5 93 0.6 NNE 9 11 5 6 1026.6 1026.5 0.0
28/09:00am 11.5 11.9 11.1 97 0.2 CALM 0 0 0 0 1026.7 1026.6 0.0
28/08:30am 9.2 9.0 9.0 99 0.1 CALM 0 0 0 0 1026.6 1026.5 0.0
28/08:00am 7.8 7.2 7.4 97 0.2 CALM 0 0 0 0 1026.4 1026.3 0.0
28/07:30am 6.2 5.2 5.5 95 0.3 CALM 0 0 0 0 1026.5 1026.4 0.0
28/07:00am 6.2 5.2 5.7 97 0.2 CALM 0 0 0 0 1026.5 1026.4 0.0
28/06:47am 7.1 6.3 6.7 97 0.2 CALM 0 0 0 0 1026.2 1026.1 0.0
28/06:30am 6.8 6.0 6.4 97 0.2 CALM 0 0 0 0 1026.1 1026.0 0.0
28/06:24am 6.7 5.5 6.5 99 0.1 NW 2 6 1 3 1026.2 1026.1 0.0
28/06:23am 6.9 5.8 6.7 99 0.1 NW 2 6 1 3 1026.2 1026.1 0.0
28/06:00am 6.5 5.5 5.8 95 0.3 CALM 0 0 0 0 1026.0 1025.9 0.0
28/05:57am 6.4 5.5 6.0 97 0.2 CALM 0 0 0 0 1026.1 1026.0 0.0
28/05:30am 7.6 6.8 6.7 94 0.4 CALM 0 0 0 0 1026.2 1026.1 0.0
28/05:00am 7.8 5.9 7.6 99 0.1 WNW 7 9 4 5 1026.4 1026.3 0.0
28/04:30am 7.1 5.5 6.4 95 0.3 W 4 7 2 4 1026.1 1026.0 0.0
28/04:00am 8.0 6.9 7.1 94 0.4 W 2 9 1 5 1026.0 1025.9 0.0
28/03:30am 7.2 6.0 6.5 95 0.3 W 2 6 1 3 1025.8 1025.7 0.0
28/03:09am 8.2 6.4 7.3 94 0.4 W 6 7 3 4 1026.2 1026.1 0.0
28/03:00am 8.6 8.0 7.5 93 0.5 CALM 0 7 0 4 1026.2 1026.1 0.0
28/02:50am 7.6 6.9 6.9 95 0.3 CALM 0 0 0 0 1026.4 1026.3 0.0
28/02:30am 6.7 5.7 5.8 94 0.4 CALM 0 0 0 0 1026.8 1026.7 0.0
28/02:00am 8.6 6.7 7.5 93 0.5 W 7 9 4 5 1027.1 1027.0 0.0
28/01:30am 9.5 7.1 8.5 93 0.5 WSW 11 11 6 6 1027.0 1026.9 0.0
28/01:00am 9.3 7.7 8.0 92 0.6 W 6 9 3 5 1027.0 1026.9 0.0
28/12:30am 9.3 7.1 8.0 92 0.6 WSW 9 9 5 5 1027.2 1027.1 0.0
28/12:00am 9.2 7.3 7.7 90 0.7 WSW 7 7 4 4 1027.4 1027.3 0.0
 
Date/Time
CDT
Temp
°C
App
Temp
°C
Dew
Point
Rel
Hum
%
Delta-T
°C
Wind Press
QNH
hPa
Press
MSL
hPa
Rain
since 9 am
mm
Dir
 
Spd
km/h
Gust
km/h
Spd
kts
Gust
kts
27/11:30pm 10.0 8.5 8.6 91 0.7 W 6 7 3 4 1027.7 1027.6 0.0
27/11:00pm 10.3 9.6 8.7 90 0.8 SW 2 9 1 5 1027.7 1027.6 0.0
27/10:30pm 10.3 8.6 8.4 88 0.9 SW 7 11 4 6 1027.7 1027.6 0.0
27/10:00pm 10.7 8.3 8.7 87 1.0 SW 11 13 6 7 1027.6 1027.5 0.0
27/09:30pm 11.0 8.6 8.8 86 1.1 SW 11 13 6 7 1027.7 1027.6 0.0
27/09:00pm 12.1 10.7 8.9 81 1.6 S 6 7 3 4 1027.6 1027.5 0.0
27/08:30pm 12.9 10.2 9.1 78 1.9 SSW 13 15 7 8 1027.3 1027.2 0.0
27/08:00pm 12.6 10.1 8.3 75 2.1 SSW 11 15 6 8 1027.2 1027.1 0.0
27/07:30pm 14.4 11.4 7.9 65 3.2 SSW 13 17 7 9 1027.1 1027.0 0.0
27/07:00pm 15.4 11.9 8.9 65 3.3 SSW 17 22 9 12 1026.8 1026.7 0.0
27/06:30pm 15.9 12.5 9.1 64 3.5 S 17 20 9 11 1026.7 1026.6 0.0
27/06:00pm 16.7 12.0 9.4 62 3.8 S 24 30 13 16 1026.5 1026.4 0.0
27/05:30pm 17.8 13.3 6.9 49 5.4 S 20 32 11 17 1026.3 1026.2 0.0
27/05:00pm 17.5 12.6 7.0 50 5.2 S 22 30 12 16 1026.4 1026.3 0.0
27/04:30pm 17.9 13.5 7.3 50 5.3 SSE 20 28 11 15 1026.4 1026.3 0.0
27/04:00pm 18.0 13.7 7.7 51 5.2 SSE 20 30 11 16 1026.6 1026.5 0.0
27/03:30pm 18.1 13.6 6.8 47 5.6 S 20 33 11 18 1026.5 1026.4 0.0
27/03:00pm 18.7 14.1 6.6 45 6.0 SW 20 30 11 16 1026.6 1026.5 0.0
27/02:30pm 17.7 13.5 7.6 51 5.1 SSW 19 28 10 15 1027.2 1027.1 0.0
27/02:00pm 17.2 13.5 7.9 54 4.7 S 17 24 9 13 1027.6 1027.5 0.0
27/01:30pm 17.1 14.2 8.0 55 4.6 SSW 13 28 7 15 1027.9 1027.8 0.0

Other Formats:

Comma delimited format used in spreadsheet applications
http://www.bom.gov.au/fwo/IDS60801/IDS60801.95818.axf

JavaScript Object Notation format (JSON) in row-major order
http://www.bom.gov.au/fwo/IDS60801/IDS60801.95818.json